Time;durP1;ratioP1;P1;durP2;ratioP2;P2;SDS_P1;SDS_P2;PMS_P1;PMS_P2;Temp;Humidity;BMP_temperature;BMP_pressure;BME280_temperature;BME280_humidity;BME280_pressure;Samples;Min_cycle;Max_cycle;Signal;HPM_P1;HPM_P2
2022/04/06 00:01:48;;;;;;;2.73;2.30;;;16.80;56.70;18.00;99755.00;;;;4989097;28;20172;-51
2022/04/06 00:04:14;;;;;;;2.87;2.40;;;16.80;56.60;18.10;99742.00;;;;4988430;28;20227;-51
2022/04/06 00:06:40;;;;;;;2.40;2.20;;;16.80;56.50;18.00;99747.00;;;;4988957;28;20179;-51
2022/04/06 00:09:05;;;;;;;2.47;2.20;;;16.80;57.10;18.00;99750.00;;;;4988298;28;20212;-51
2022/04/06 00:11:31;;;;;;;2.43;2.13;;;16.80;56.50;18.00;99754.00;;;;4988431;28;20152;-51
2022/04/06 00:13:58;;;;;;;2.43;2.20;;;16.70;56.50;18.00;99745.00;;;;4988759;28;20207;-51
2022/04/06 00:16:24;;;;;;;2.30;2.10;;;16.70;56.40;18.00;99742.00;;;;4988226;28;20179;-50
2022/04/06 00:18:49;;;;;;;2.20;2.00;;;16.70;56.40;18.00;99699.00;;;;4988377;28;20176;-51
2022/04/06 00:21:15;;;;;;;2.30;2.10;;;16.70;56.40;18.00;99732.00;;;;4988310;28;20172;-51
2022/04/06 00:23:41;;;;;;;2.50;2.10;;;16.70;56.40;18.00;99743.00;;;;4988152;28;20203;-51
2022/04/06 00:26:07;;;;;;;2.47;2.10;;;16.70;56.30;18.00;99734.00;;;;4988073;28;20177;-50
2022/04/06 00:28:33;;;;;;;2.43;2.10;;;16.70;56.40;18.00;99739.00;;;;4987892;28;20231;-51
2022/04/06 00:30:59;;;;;;;2.27;2.07;;;16.70;56.30;17.90;99730.00;;;;4987865;28;20552;-51
2022/04/06 00:33:24;;;;;;;2.27;2.07;;;16.70;56.40;17.90;99729.00;;;;4987960;28;20267;-51
2022/04/06 00:35:51;;;;;;;2.47;2.20;;;16.60;56.40;17.90;99724.00;;;;4987730;28;20181;-51
2022/04/06 00:38:16;;;;;;;2.20;2.00;;;16.60;56.40;17.90;99728.00;;;;4988039;28;20184;-51
2022/04/06 00:40:42;;;;;;;2.40;2.20;;;16.60;56.40;17.90;99732.00;;;;4986428;28;20227;-51
2022/04/06 00:43:10;;;;;;;2.20;2.00;;;16.60;56.40;17.90;99724.00;;;;4987916;28;20207;-51
2022/04/06 00:45:38;;;;;;;2.73;2.20;;;16.60;56.50;17.90;99730.00;;;;4987532;28;20759;-51
2022/04/06 00:48:04;;;;;;;2.30;2.10;;;16.60;56.50;17.90;99726.00;;;;4987856;28;20231;-51
2022/04/06 00:50:30;;;;;;;2.60;2.00;;;16.50;56.30;17.90;99723.00;;;;4988001;28;20830;-51
2022/04/06 00:52:57;;;;;;;2.57;2.13;;;16.60;56.60;17.90;99721.00;;;;4987698;28;20255;-51
2022/04/06 00:55:41;;;;;;;3.30;2.17;;;16.60;56.60;17.90;99709.00;;;;4987370;28;20699;-51
2022/04/06 00:58:07;;;;;;;2.27;2.07;;;16.50;56.50;17.80;99722.00;;;;4987476;28;20163;-51
2022/04/06 01:00:32;;;;;;;2.10;1.90;;;16.60;56.50;17.80;99716.00;;;;4987091;28;20601;-50
2022/04/06 01:02:58;;;;;;;2.20;1.97;;;16.50;56.40;17.80;99716.00;;;;4987649;28;20176;-51
2022/04/06 01:05:25;;;;;;;2.83;2.20;;;16.60;56.50;17.80;99711.00;;;;4986821;28;20184;-51
2022/04/06 01:07:52;;;;;;;2.30;2.10;;;16.50;56.50;17.80;99710.00;;;;4987477;28;20184;-50
2022/04/06 01:10:18;;;;;;;2.30;2.10;;;16.50;56.50;17.80;99705.00;;;;4987159;28;20556;-50
2022/04/06 01:12:47;;;;;;;2.53;2.07;;;16.50;56.50;17.80;99704.00;;;;4987197;28;20183;-50
2022/04/06 01:15:13;;;;;;;2.63;1.97;;;16.50;56.60;17.80;99707.00;;;;4987268;28;20172;-50
2022/04/06 01:17:38;;;;;;;2.30;2.10;;;16.40;56.60;17.80;99712.00;;;;4986989;28;20176;-50
2022/04/06 01:20:05;;;;;;;2.17;1.97;;;16.40;56.60;17.80;99709.00;;;;4987147;28;20192;-51
2022/04/06 01:22:31;;;;;;;2.30;2.10;;;16.40;56.60;17.70;99712.00;;;;4987453;28;20165;-50
2022/04/06 01:24:57;;;;;;;2.30;2.00;;;16.40;56.60;17.70;99704.00;;;;4987394;28;20582;-50
2022/04/06 01:27:23;;;;;;;3.03;2.20;;;16.40;56.60;17.70;99698.00;;;;4987246;28;20179;-50
2022/04/06 01:29:51;;;;;;;2.10;1.90;;;16.40;56.50;17.70;99696.00;;;;4985806;28;20204;-50
2022/04/06 01:32:20;;;;;;;2.27;2.00;;;16.40;57.00;17.70;99695.00;;;;4987130;28;20168;-50
2022/04/06 01:34:46;;;;;;;2.13;1.97;;;16.40;56.60;17.70;99703.00;;;;4986087;28;20307;-50
2022/04/06 01:37:13;;;;;;;2.33;2.10;;;16.40;56.60;17.70;99690.00;;;;4986850;28;20248;-50
2022/04/06 01:39:40;;;;;;;2.43;1.93;;;16.30;56.50;17.70;99699.00;;;;4986996;28;20200;-50
2022/04/06 01:42:08;;;;;;;2.20;2.00;;;16.40;56.60;17.70;99694.00;;;;4986936;28;20172;-50
2022/04/06 01:44:34;;;;;;;2.47;2.00;;;16.40;56.70;17.70;99694.00;;;;4985762;28;20184;-50
2022/04/06 01:47:01;;;;;;;2.37;1.90;;;16.30;56.60;17.70;99695.00;;;;4986556;28;20179;-50
2022/04/06 01:52:13;;;;;;;2.60;2.00;;;16.30;56.60;17.60;99694.00;;;;4986918;28;20174;-50
2022/04/06 01:54:46;;;;;;;2.23;2.03;;;16.30;56.50;17.60;99687.00;;;;4986745;28;20202;-51
2022/04/06 01:57:12;;;;;;;2.00;1.80;;;16.40;56.70;17.60;99686.00;;;;4986723;28;20792;-50
2022/04/06 01:59:37;;;;;;;2.70;1.90;;;16.30;56.50;17.60;99686.00;;;;4985291;28;20704;-49
2022/04/06 02:02:04;;;;;;;2.10;1.90;;;16.30;56.40;17.60;99684.00;;;;4986670;28;20168;-50
2022/04/06 02:04:30;;;;;;;2.20;1.83;;;16.30;56.50;17.60;99682.00;;;;4986684;28;20657;-50
2022/04/06 02:06:55;;;;;;;2.53;2.03;;;16.30;56.50;17.60;99682.00;;;;4986408;28;20231;-51
2022/04/06 02:09:21;;;;;;;2.20;2.00;;;16.30;56.70;17.60;99677.00;;;;4986291;28;20215;-51
2022/04/06 02:11:47;;;;;;;2.03;1.93;;;16.30;56.60;17.60;99671.00;;;;4986381;28;20308;-50
2022/04/06 02:14:13;;;;;;;2.10;1.90;;;16.30;56.60;17.60;99675.00;;;;4986365;28;20672;-50
2022/04/06 02:16:39;;;;;;;1.97;1.80;;;16.30;56.60;17.60;99663.00;;;;4988161;28;20172;-50
2022/04/06 02:19:05;;;;;;;2.63;1.90;;;16.30;56.50;17.60;99663.00;;;;4989390;28;20195;-50
2022/04/06 02:21:31;;;;;;;2.13;1.83;;;16.30;56.50;17.50;99661.00;;;;4990648;28;20739;-50
2022/04/06 02:23:57;;;;;;;2.27;2.07;;;16.30;56.50;17.50;99669.00;;;;4990396;28;20557;-51
2022/04/06 02:26:23;;;;;;;2.30;2.10;;;16.30;56.50;17.50;99668.00;;;;4989846;28;20177;-51
2022/04/06 02:28:48;;;;;;;2.63;2.20;;;16.30;56.50;17.50;99666.00;;;;4990298;28;20303;-50
2022/04/06 02:31:14;;;;;;;2.17;1.97;;;16.30;56.40;17.50;99672.00;;;;4990308;28;20541;-50
2022/04/06 02:33:40;;;;;;;1.93;1.83;;;16.20;56.40;17.50;99664.00;;;;4990343;28;20172;-49
2022/04/06 02:36:06;;;;;;;2.73;2.00;;;16.30;56.40;17.50;99665.00;;;;4990077;28;20172;-50
2022/04/06 02:38:32;;;;;;;2.47;2.00;;;16.30;56.40;17.50;99665.00;;;;4990126;28;20173;-50
2022/04/06 02:40:57;;;;;;;1.80;1.70;;;16.20;56.40;17.50;99654.00;;;;4990046;28;20188;-50
2022/04/06 02:43:23;;;;;;;1.80;1.70;;;16.20;56.30;17.50;99654.00;;;;4990248;28;20188;-50
2022/04/06 02:45:49;;;;;;;1.80;1.70;;;16.20;56.40;17.50;99648.00;;;;4990024;28;20207;-52
2022/04/06 02:48:16;;;;;;;2.07;1.87;;;16.20;56.30;17.50;99653.00;;;;4989554;28;20526;-51
2022/04/06 02:50:42;;;;;;;2.33;2.07;;;16.20;56.20;17.50;99648.00;;;;4990017;28;20194;-50
2022/04/06 02:53:07;;;;;;;2.07;1.87;;;16.20;56.30;17.40;99645.00;;;;4990067;28;20165;-50
2022/04/06 02:55:33;;;;;;;2.67;1.90;;;16.20;56.20;17.50;99646.00;;;;4989743;28;20660;-50
2022/04/06 02:57:59;;;;;;;2.20;2.00;;;16.20;56.30;17.50;99647.00;;;;4989834;28;20172;-50
2022/04/06 03:00:24;;;;;;;2.80;1.97;;;16.20;56.40;17.40;99649.00;;;;4989371;28;20246;-52
2022/04/06 03:02:50;;;;;;;2.30;2.00;;;16.20;56.40;17.40;99648.00;;;;4989505;28;20664;-50
2022/04/06 03:05:16;;;;;;;2.00;1.50;;;16.20;56.60;17.40;99647.00;;;;4989703;28;20177;-51
2022/04/06 03:07:42;;;;;;;2.87;1.80;;;16.10;56.40;17.40;99646.00;;;;4989470;28;20168;-51
2022/04/06 03:10:08;;;;;;;1.90;1.80;;;16.10;56.30;17.40;99655.00;;;;4989118;28;20244;-50
2022/04/06 03:12:34;;;;;;;1.70;1.60;;;16.20;56.40;17.40;99640.00;;;;4989686;28;20772;-50
2022/04/06 03:15:00;;;;;;;2.10;1.90;;;16.20;56.40;17.40;99640.00;;;;4988667;28;20207;-50
2022/04/06 03:17:25;;;;;;;2.33;1.80;;;16.10;56.30;17.40;99651.00;;;;4989148;28;20173;-50
2022/04/06 03:19:51;;;;;;;2.43;1.60;;;16.10;56.40;17.40;99651.00;;;;4986491;28;20227;-50
2022/04/06 03:22:20;;;;;;;2.37;1.90;;;16.10;56.40;17.40;99647.00;;;;4988761;28;20722;-51
2022/04/06 03:24:46;;;;;;;2.00;1.67;;;16.20;56.30;17.40;99640.00;;;;4989011;28;20271;-49
2022/04/06 03:27:12;;;;;;;2.10;1.90;;;16.10;56.30;17.40;99644.00;;;;4988976;28;20295;-50
2022/04/06 03:29:40;;;;;;;4.40;2.20;;;16.10;56.50;17.40;99627.00;;;;4987027;28;20270;-49
2022/04/06 03:32:07;;;;;;;2.23;1.70;;;16.10;56.60;17.40;99629.00;;;;4989583;28;20184;-50
2022/04/06 03:34:32;;;;;;;4.30;2.00;;;16.10;56.40;17.40;99626.00;;;;5003919;28;20172;-50
2022/04/06 03:36:58;;;;;;;4.17;1.90;;;16.10;56.30;17.40;99629.00;;;;4988809;28;20836;-50
2022/04/06 03:39:24;;;;;;;3.87;1.90;;;16.10;56.30;17.30;99633.00;;;;4988526;28;20793;-50
2022/04/06 03:41:50;;;;;;;3.10;2.00;;;16.10;56.20;17.30;99630.00;;;;4988792;28;20192;-51
2022/04/06 03:44:15;;;;;;;4.20;2.00;;;16.10;56.20;17.30;99615.00;;;;4988802;28;20176;-50
2022/04/06 03:46:41;;;;;;;5.03;2.20;;;16.10;56.10;17.30;99630.00;;;;4988458;28;20180;-50
2022/04/06 03:49:07;;;;;;;6.90;2.20;;;16.10;56.10;17.30;99635.00;;;;4988424;28;20208;-51
2022/04/06 03:51:33;;;;;;;4.13;2.10;;;16.10;56.10;17.30;99617.00;;;;4988675;28;20196;-50
2022/04/06 03:53:58;;;;;;;3.63;1.97;;;16.00;55.90;17.30;99622.00;;;;5001831;28;20761;-50
2022/04/06 03:56:24;;;;;;;4.43;2.10;;;16.00;55.90;17.30;99625.00;;;;4988246;28;20219;-50
2022/04/06 03:58:50;;;;;;;2.73;2.00;;;16.00;55.70;17.30;99627.00;;;;4988041;28;20173;-50
2022/04/06 04:01:16;;;;;;;4.87;2.10;;;16.10;55.70;17.30;99555.00;;;;4988661;28;20199;-50
2022/04/06 04:03:42;;;;;;;3.03;1.83;;;16.00;55.70;17.20;99633.00;;;;4988417;28;20187;-51
2022/04/06 04:06:07;;;;;;;3.50;2.00;;;16.00;55.90;17.30;99625.00;;;;4988764;28;20172;-50
2022/04/06 04:08:33;;;;;;;2.93;2.00;;;16.00;55.60;17.30;99637.00;;;;4988360;28;20219;-50
2022/04/06 04:10:59;;;;;;;9.00;2.30;;;16.00;55.60;17.20;99642.00;;;;4988433;28;20250;-51
2022/04/06 04:13:24;;;;;;;3.73;2.00;;;16.00;56.20;17.20;99640.00;;;;4987884;28;20231;-50
2022/04/06 04:15:50;;;;;;;4.17;2.10;;;16.00;55.70;17.20;99624.00;;;;4988627;28;20250;-50
2022/04/06 04:18:16;;;;;;;2.93;2.20;;;16.00;55.80;17.20;99610.00;;;;4987856;28;20650;-50
2022/04/06 04:20:45;;;;;;;4.50;2.10;;;16.00;55.80;17.20;99629.00;;;;4988014;28;20195;-51
2022/04/06 04:23:11;;;;;;;5.23;1.93;;;16.00;55.70;17.20;99625.00;;;;5001751;28;20184;-50
2022/04/06 04:25:37;;;;;;;5.23;2.23;;;16.00;55.80;17.20;99626.00;;;;4987135;28;20168;-50
2022/04/06 04:28:03;;;;;;;5.33;2.13;;;15.90;55.70;17.20;99619.00;;;;4986629;28;20814;-50
2022/04/06 04:30:29;;;;;;;2.83;1.77;;;16.00;55.80;17.20;99610.00;;;;4987621;28;20544;-50
2022/04/06 04:32:55;;;;;;;6.97;2.40;;;16.00;55.60;17.20;99616.00;;;;4987150;28;20177;-52
2022/04/06 04:35:21;;;;;;;8.13;2.10;;;15.90;55.80;17.20;99627.00;;;;4987941;28;20172;-50
2022/04/06 04:37:46;;;;;;;3.70;2.10;;;15.90;55.90;17.20;99608.00;;;;4987811;28;20172;-50
2022/04/06 04:40:12;;;;;;;4.30;2.20;;;15.90;55.80;17.20;99623.00;;;;4986840;28;20560;-50
2022/04/06 04:42:38;;;;;;;6.17;2.33;;;15.90;55.80;17.20;99615.00;;;;4987904;28;20168;-50
2022/04/06 04:45:04;;;;;;;4.17;2.07;;;15.90;55.70;17.20;99596.00;;;;4986818;28;20177;-50
2022/04/06 04:47:30;;;;;;;7.90;2.20;;;15.90;55.60;17.10;99614.00;;;;4986421;28;20172;-50
2022/04/06 04:49:57;;;;;;;5.30;2.27;;;15.90;55.50;17.20;99612.00;;;;5001313;28;20212;-50
2022/04/06 04:52:23;;;;;;;2.90;2.03;;;15.90;55.50;17.10;99618.00;;;;4987920;28;20712;-50
2022/04/06 04:54:49;;;;;;;5.07;2.20;;;15.90;55.50;17.10;99615.00;;;;4986623;28;20168;-50
2022/04/06 04:57:14;;;;;;;4.53;2.20;;;15.90;56.10;17.10;99612.00;;;;4987211;28;20183;-50
2022/04/06 04:59:40;;;;;;;3.47;2.13;;;15.90;55.40;17.10;99610.00;;;;4987296;28;20208;-50
2022/04/06 05:02:12;;;;;;;3.30;2.20;;;15.90;55.40;17.10;99603.00;;;;5103627;27;20545;-50
2022/04/06 05:04:38;;;;;;;3.57;2.10;;;15.80;55.30;17.10;99603.00;;;;5083661;28;20165;-50
2022/04/06 05:07:04;;;;;;;6.30;2.20;;;15.80;55.30;17.10;99611.00;;;;5083809;28;20165;-50
2022/04/06 05:09:30;;;;;;;4.17;2.20;;;15.80;55.40;17.10;99617.00;;;;5088802;28;20191;-50
2022/04/06 05:11:55;;;;;;;4.73;2.00;;;15.80;55.30;17.10;99605.00;;;;5089415;28;20184;-50
2022/04/06 05:14:21;;;;;;;3.83;1.90;;;15.80;55.30;17.10;99612.00;;;;5084023;28;20165;-51
2022/04/06 05:16:47;;;;;;;3.40;2.00;;;15.80;55.20;17.10;99605.00;;;;5084497;28;20184;-50
2022/04/06 05:19:12;;;;;;;3.10;2.00;;;15.80;55.20;17.10;99609.00;;;;5085565;28;20234;-50
2022/04/06 05:21:38;;;;;;;2.27;2.07;;;15.80;55.20;17.10;99606.00;;;;5085541;28;20180;-50
2022/04/06 05:24:04;;;;;;;4.60;2.23;;;15.80;55.10;17.10;99594.00;;;;5084219;28;20840;-50
2022/04/06 05:26:30;;;;;;;2.53;2.00;;;15.80;55.20;17.10;99605.00;;;;5083265;28;20172;-50
2022/04/06 05:28:56;;;;;;;3.40;2.07;;;15.80;55.10;17.10;99608.00;;;;5084804;28;20193;-51
2022/04/06 05:31:22;;;;;;;4.40;2.33;;;15.80;55.10;17.00;99602.00;;;;5084509;28;20833;-52
2022/04/06 05:33:48;;;;;;;3.13;1.93;;;15.80;55.10;17.00;99606.00;;;;5083246;28;20280;-51
2022/04/06 05:36:14;;;;;;;2.90;1.90;;;15.80;55.10;17.10;99614.00;;;;5082840;28;20173;-51
2022/04/06 05:38:40;;;;;;;3.90;2.27;;;15.80;55.10;17.00;99621.00;;;;5082909;28;20192;-51
2022/04/06 05:41:07;;;;;;;2.83;2.07;;;15.80;55.10;17.00;99614.00;;;;5076864;28;20978;-50
2022/04/06 05:43:32;;;;;;;3.43;2.27;;;15.80;55.10;17.00;99618.00;;;;5073619;28;20181;-50
2022/04/06 05:45:58;;;;;;;2.33;1.80;;;15.80;55.00;17.00;99621.00;;;;5082154;28;20169;-52
2022/04/06 05:48:24;;;;;;;3.07;2.00;;;15.70;55.00;17.00;99611.00;;;;5082586;28;20191;-50
2022/04/06 05:50:50;;;;;;;2.40;1.87;;;15.80;55.10;17.00;99600.00;;;;5082209;28;20197;-51
2022/04/06 05:53:15;;;;;;;3.00;2.00;;;15.80;55.00;17.00;99604.00;;;;5071862;28;20222;-50
2022/04/06 05:55:42;;;;;;;2.87;1.97;;;15.80;55.00;17.00;99605.00;;;;5083296;28;20169;-51
2022/04/06 05:58:08;;;;;;;2.60;2.07;;;15.70;54.90;17.00;99615.00;;;;5082516;28;20231;-51
2022/04/06 06:00:34;;;;;;;2.67;1.90;;;15.70;54.90;16.90;99610.00;;;;5082116;28;20255;-50
2022/04/06 06:02:59;;;;;;;3.10;2.00;;;15.70;54.90;17.00;99605.00;;;;5082308;28;20549;-51
2022/04/06 06:05:25;;;;;;;2.97;1.90;;;15.70;54.90;17.00;99611.00;;;;5082732;28;20174;-50
2022/04/06 06:07:51;;;;;;;3.20;2.20;;;15.70;54.80;17.00;99607.00;;;;5082155;28;20197;-50
2022/04/06 06:10:16;;;;;;;2.50;1.90;;;15.70;54.80;17.00;99606.00;;;;5082178;28;20189;-50
2022/04/06 06:12:42;;;;;;;2.70;2.00;;;15.70;54.80;17.00;99602.00;;;;5073508;28;20208;-51
2022/04/06 06:15:08;;;;;;;2.70;2.07;;;15.70;55.40;16.90;99610.00;;;;5068887;28;20177;-50
2022/04/06 06:17:40;;;;;;;2.13;1.93;;;15.70;54.80;17.00;99613.00;;;;5068401;28;20174;-51
2022/04/06 06:20:06;;;;;;;2.60;1.90;;;15.70;54.80;16.90;99601.00;;;;5067231;28;20189;-51
2022/04/06 06:22:32;;;;;;;2.60;2.10;;;15.70;54.80;16.90;99615.00;;;;5067822;28;20814;-50
2022/04/06 06:24:58;;;;;;;2.30;1.97;;;15.70;54.80;16.90;99596.00;;;;5068763;28;20158;-50
2022/04/06 06:27:24;;;;;;;3.47;2.00;;;15.70;54.80;16.90;99597.00;;;;5067265;28;20795;-50
2022/04/06 06:29:50;;;;;;;3.03;1.97;;;15.70;54.80;16.90;99591.00;;;;5067338;28;20700;-51
2022/04/06 06:32:16;;;;;;;2.73;1.93;;;15.70;54.70;16.90;99601.00;;;;5068093;28;20169;-51
2022/04/06 06:34:42;;;;;;;2.43;1.90;;;15.60;54.70;16.90;99602.00;;;;5068536;28;20716;-51
2022/04/06 06:37:08;;;;;;;2.47;1.93;;;15.70;54.80;16.90;99603.00;;;;5066952;28;20170;-51
2022/04/06 06:39:34;;;;;;;2.87;2.03;;;15.60;54.70;16.90;99608.00;;;;5070147;28;20208;-51
2022/04/06 06:41:59;;;;;;;2.37;1.80;;;15.60;54.70;16.90;99603.00;;;;5069218;28;20177;-51
2022/04/06 06:44:25;;;;;;;2.43;1.90;;;15.60;54.70;16.90;99595.00;;;;5069357;28;20194;-51
2022/04/06 06:46:51;;;;;;;2.43;1.90;;;15.60;54.70;16.90;99593.00;;;;5075133;28;20295;-51
2022/04/06 06:49:17;;;;;;;2.80;2.07;;;15.60;54.70;16.90;99599.00;;;;5073451;28;20193;-50
2022/04/06 06:51:42;;;;;;;3.47;2.00;;;15.60;54.70;16.90;99595.00;;;;5069453;28;20173;-50
2022/04/06 06:54:08;;;;;;;2.63;2.00;;;15.60;54.60;16.90;99593.00;;;;5068832;28;20176;-51
2022/04/06 06:56:34;;;;;;;2.17;1.90;;;15.60;54.60;16.80;99593.00;;;;5067863;28;20173;-51
2022/04/06 06:58:59;;;;;;;2.50;1.80;;;15.60;54.60;16.90;99589.00;;;;5070518;28;20209;-50
2022/04/06 07:01:25;;;;;;;1.90;1.70;;;15.60;54.60;16.80;99595.00;;;;5069771;28;20223;-51
2022/04/06 07:03:51;;;;;;;3.43;2.00;;;15.60;54.60;16.80;99600.00;;;;5068004;28;20170;-51
2022/04/06 07:06:17;;;;;;;3.20;1.90;;;15.60;54.60;16.80;99596.00;;;;5067695;28;20174;-51
2022/04/06 07:08:42;;;;;;;2.43;1.83;;;15.60;54.60;16.80;99590.00;;;;5067740;28;20227;-50
2022/04/06 07:11:08;;;;;;;2.63;1.73;;;15.60;54.60;16.80;99584.00;;;;5067760;28;20197;-50
2022/04/06 07:13:34;;;;;;;2.77;2.00;;;15.60;54.60;16.80;99583.00;;;;5066614;28;20172;-51
2022/04/06 07:16:00;;;;;;;2.07;1.87;;;15.60;54.50;16.80;99584.00;;;;5079257;28;20200;-50
2022/04/06 07:18:26;;;;;;;2.10;1.90;;;15.50;54.50;16.80;99578.00;;;;5074734;28;20201;-50
2022/04/06 07:20:52;;;;;;;2.80;2.10;;;15.60;54.50;16.80;99575.00;;;;5067272;28;20185;-50
2022/04/06 07:23:18;;;;;;;2.77;2.00;;;15.60;54.40;16.60;99571.00;;;;5066467;28;20166;-51
2022/04/06 07:25:44;;;;;;;2.47;1.77;;;15.60;54.50;16.80;99576.00;;;;5066592;28;20866;-51
2022/04/06 07:28:09;;;;;;;1.93;1.73;;;15.60;54.40;16.80;99578.00;;;;5067053;28;20199;-51
2022/04/06 07:30:35;;;;;;;2.87;2.10;;;15.50;54.40;16.80;99575.00;;;;5065042;28;20196;-50
2022/04/06 07:33:01;;;;;;;2.00;1.80;;;15.50;54.60;16.80;99575.00;;;;5066984;28;20229;-51
2022/04/06 07:35:27;;;;;;;3.20;1.90;;;15.50;54.70;16.80;99565.00;;;;5066040;28;20240;-50
2022/04/06 07:37:53;;;;;;;2.37;1.77;;;15.60;55.00;16.80;99561.00;;;;5066912;28;20169;-50
2022/04/06 07:40:22;;;;;;;2.97;1.93;;;15.80;55.00;16.80;99547.00;;;;5065217;28;20210;-50
2022/04/06 07:42:49;;;;;;;3.83;1.87;;;15.90;55.00;16.90;99556.00;;;;5066402;28;20565;-50
2022/04/06 07:45:17;;;;;;;1.87;1.70;;;16.00;55.10;16.90;99557.00;;;;5066850;28;20170;-50
2022/04/06 07:47:46;;;;;;;2.63;1.90;;;16.00;55.50;16.90;99556.00;;;;5065665;28;20169;-50
2022/04/06 07:50:13;;;;;;;2.73;1.83;;;16.10;55.00;17.00;99553.00;;;;5064059;28;20185;-51
2022/04/06 07:52:38;;;;;;;3.37;2.07;;;16.10;54.90;17.00;99554.00;;;;5066097;28;20162;-51
2022/04/06 07:55:06;;;;;;;3.00;1.60;;;16.10;54.80;17.00;99553.00;;;;5065669;28;20209;-50
2022/04/06 07:57:32;;;;;;;2.13;1.90;;;16.10;54.80;17.00;99552.00;;;;5061719;28;20534;-50
2022/04/06 08:00:00;;;;;;;2.40;1.87;;;16.10;54.80;17.00;99555.00;;;;5067244;28;20208;-50
2022/04/06 08:02:26;;;;;;;3.73;1.70;;;16.10;54.90;17.00;99560.00;;;;5068618;28;20276;-50
2022/04/06 08:04:51;;;;;;;2.50;1.60;;;16.10;55.50;17.10;99565.00;;;;5073966;28;20173;-50
2022/04/06 08:07:17;;;;;;;2.83;1.80;;;16.00;55.00;17.10;99562.00;;;;5069499;28;20158;-50
2022/04/06 08:09:43;;;;;;;2.77;1.67;;;16.10;55.10;17.10;99560.00;;;;5069674;28;20777;-51
2022/04/06 08:12:09;;;;;;;2.50;1.70;;;16.10;55.10;17.10;99556.00;;;;5069480;28;20586;-52
2022/04/06 08:14:34;;;;;;;3.17;1.40;;;16.10;55.10;17.10;99563.00;;;;5068212;28;20192;-51
2022/04/06 08:17:00;;;;;;;1.77;1.67;;;16.10;55.10;17.10;99565.00;;;;5067760;28;20174;-51
2022/04/06 08:19:26;;;;;;;3.67;1.70;;;16.10;55.20;17.10;99571.00;;;;5068671;28;20204;-51
2022/04/06 08:21:52;;;;;;;1.83;1.60;;;16.10;55.20;17.10;99571.00;;;;5069780;28;20338;-51
2022/04/06 08:24:18;;;;;;;2.57;1.70;;;16.10;55.30;17.10;99579.00;;;;5075555;28;20174;-52
2022/04/06 08:26:44;;;;;;;2.17;1.50;;;16.10;55.30;17.10;99579.00;;;;5076935;28;20173;-50
2022/04/06 08:29:09;;;;;;;4.30;1.97;;;16.00;55.30;17.10;99586.00;;;;5070880;28;20535;-51
2022/04/06 08:31:35;;;;;;;7.30;2.10;;;16.10;55.50;17.10;99577.00;;;;5067886;28;20550;-51
2022/04/06 08:34:03;;;;;;;6.80;2.00;;;16.10;55.50;17.10;99581.00;;;;5069271;28;20178;-51
2022/04/06 08:36:30;;;;;;;9.43;2.70;;;16.10;55.50;17.10;99576.00;;;;5048800;28;20327;-51
2022/04/06 08:38:56;;;;;;;7.90;2.80;;;16.10;55.70;17.10;99568.00;;;;4976733;28;20810;-51
2022/04/06 08:41:26;;;;;;;9.77;2.90;;;16.20;56.20;17.10;99560.00;;;;5069004;28;20198;-51
2022/04/06 08:43:53;;;;;;;11.50;2.63;;;16.10;56.30;17.10;99576.00;;;;5068749;28;20170;-50
2022/04/06 08:46:19;;;;;;;10.10;2.60;;;16.10;56.50;17.10;99570.00;;;;5071641;28;20292;-51
2022/04/06 08:48:51;;;;;;;8.60;2.20;;;16.10;56.60;17.10;99569.00;;;;5067961;28;20173;-51
2022/04/06 08:51:17;;;;;;;7.87;2.37;;;16.10;56.50;17.10;99569.00;;;;5067670;28;20177;-51
2022/04/06 08:53:44;;;;;;;6.03;2.13;;;16.10;56.50;17.10;99574.00;;;;5071441;28;20174;-52
2022/04/06 08:56:12;;;;;;;8.13;2.40;;;16.10;56.40;17.10;99574.00;;;;5076222;28;20165;-51
2022/04/06 08:58:38;;;;;;;6.53;2.00;;;16.10;56.30;17.10;99562.00;;;;5076944;28;20658;-50
2022/04/06 09:01:04;;;;;;;5.13;2.10;;;16.00;56.30;17.10;99583.00;;;;5067909;28;20214;-51
2022/04/06 09:03:30;;;;;;;5.97;2.20;;;16.00;56.20;17.10;99575.00;;;;5069187;28;20227;-50
2022/04/06 09:06:05;;;;;;;6.27;2.07;;;16.00;56.20;17.10;99569.00;;;;5068963;28;20545;-51
2022/04/06 09:08:41;;;;;;;5.43;2.00;;;16.00;56.10;17.10;99567.00;;;;5067811;28;20192;-50
2022/04/06 09:11:11;;;;;;;4.57;1.73;;;16.00;56.10;17.10;99555.00;;;;5068416;28;20189;-51
2022/04/06 09:13:38;;;;;;;6.33;2.10;;;16.00;56.10;17.10;99560.00;;;;5068900;28;20344;-51
2022/04/06 09:16:05;;;;;;;3.90;2.20;;;16.00;56.70;17.10;99548.00;;;;5068526;28;20204;-50
2022/04/06 09:18:38;;;;;;;4.80;2.10;;;15.90;55.80;17.00;99553.00;;;;5051078;28;20170;-51
2022/04/06 09:21:04;;;;;;;5.23;2.00;;;16.00;55.90;17.00;99544.00;;;;5071137;28;20205;-51
2022/04/06 09:23:31;;;;;;;5.33;1.93;;;15.90;55.80;17.00;99545.00;;;;5070646;28;20235;-50
2022/04/06 09:26:07;;;;;;;4.10;1.90;;;15.90;55.80;17.00;99541.00;;;;5068385;28;20174;-50
2022/04/06 09:28:40;;;;;;;5.50;2.00;;;15.90;55.70;17.00;99529.00;;;;5068908;28;20257;-50
2022/04/06 09:31:06;;;;;;;2.90;1.80;;;15.90;55.80;17.00;99535.00;;;;5068891;28;20209;-50
2022/04/06 09:33:32;;;;;;;3.10;1.90;;;15.90;55.70;17.00;99542.00;;;;5069305;28;20177;-50
2022/04/06 09:35:58;;;;;;;4.33;1.80;;;15.90;55.60;17.00;99539.00;;;;5068345;28;20228;-50
2022/04/06 09:38:27;;;;;;;4.37;1.93;;;15.90;55.60;17.00;99536.00;;;;5068836;28;20204;-50
2022/04/06 09:41:06;;;;;;;2.97;1.83;;;15.90;55.50;17.00;99528.00;;;;5068479;28;20205;-50
2022/04/06 09:43:35;;;;;;;3.03;1.80;;;15.80;55.60;17.00;99531.00;;;;5068388;28;20192;-50
2022/04/06 09:49:13;;;;;;;2.77;1.90;;;15.80;55.40;17.00;99511.00;;;;5071998;28;20216;-51
2022/04/06 09:51:43;;;;;;;1.90;1.53;;;15.80;55.40;16.90;99517.00;;;;5072188;28;20173;-51
2022/04/06 09:54:10;;;;;;;2.30;1.60;;;15.80;55.40;16.90;99509.00;;;;5072391;28;20465;-51
2022/04/06 09:56:36;;;;;;;3.33;1.73;;;15.80;55.40;16.90;99518.00;;;;5072186;28;20186;-51
2022/04/06 09:59:03;;;;;;;2.30;1.53;;;15.80;55.40;16.90;99515.00;;;;5071980;28;20182;-52
2022/04/06 10:01:33;;;;;;;1.93;1.60;;;15.80;55.40;16.90;99508.00;;;;5071943;28;20206;-51
2022/04/06 10:04:04;;;;;;;4.87;1.73;;;15.80;55.40;16.90;99506.00;;;;5071906;28;20182;-50
2022/04/06 10:06:34;;;;;;;2.17;1.73;;;15.80;55.40;16.90;99506.00;;;;5071984;28;20534;-50
2022/04/06 10:09:01;;;;;;;1.83;1.60;;;15.80;55.40;16.90;99517.00;;;;5071703;28;20247;-50
2022/04/06 10:11:27;;;;;;;2.63;1.73;;;15.80;55.40;16.90;99519.00;;;;5070538;28;20231;-51
2022/04/06 10:13:53;;;;;;;2.20;1.80;;;15.80;55.40;16.90;99514.00;;;;5070508;28;20185;-51
2022/04/06 10:16:20;;;;;;;1.90;1.60;;;15.80;55.40;16.90;99511.00;;;;5070583;28;20178;-51
2022/04/06 10:18:45;;;;;;;2.43;1.60;;;15.80;55.40;16.90;99514.00;;;;5070483;28;20181;-51
2022/04/06 10:22:00;;;;;;;2.60;1.50;;;15.80;55.40;16.90;99510.00;;;;5053745;28;20200;-51
2022/04/06 10:24:40;;;;;;;2.50;1.77;;;15.80;55.40;16.90;99513.00;;;;5071797;28;20173;-50
2022/04/06 10:27:15;;;;;;;4.20;1.60;;;15.80;55.40;16.60;99516.00;;;;5083445;28;20192;-50
2022/04/06 10:30:23;;;;;;;2.00;1.60;;;15.80;55.40;16.90;99525.00;;;;5078938;28;20208;-51
2022/04/06 10:32:52;;;;;;;2.13;1.60;;;15.80;55.40;16.80;99507.00;;;;5080998;28;20189;-52
2022/04/06 10:35:33;;;;;;;4.63;1.60;;;15.70;55.30;16.80;99497.00;;;;5077350;28;20570;-50
2022/04/06 10:37:58;;;;;;;1.67;1.40;;;15.70;55.30;16.80;99502.00;;;;5072124;28;20558;-59
2022/04/06 10:40:31;;;;;;;2.53;1.43;;;15.70;55.30;16.80;99501.00;;;;5071081;28;20201;-51
2022/04/06 10:42:57;;;;;;;1.77;1.67;;;15.70;55.30;16.80;99494.00;;;;5071524;28;20158;-51
2022/04/06 10:45:28;;;;;;;1.70;1.40;;;15.70;55.30;16.80;99498.00;;;;5071314;28;20545;-51
2022/04/06 10:48:18;;;;;;;2.90;1.70;;;15.70;55.30;16.80;99493.00;;;;5070897;28;20653;-51
2022/04/06 10:50:45;;;;;;;3.00;1.60;;;15.70;55.30;16.80;99502.00;;;;5070943;28;20217;-50
2022/04/06 10:53:23;;;;;;;1.80;1.50;;;15.70;55.30;16.80;99494.00;;;;5070990;28;20170;-52
2022/04/06 10:56:17;;;;;;;1.87;1.40;;;15.70;55.30;16.80;99497.00;;;;5070826;28;20210;-50
2022/04/06 10:58:57;;;;;;;2.33;1.60;;;15.70;55.30;16.80;99485.00;;;;5071469;28;20165;-50
2022/04/06 11:01:30;;;;;;;1.40;1.30;;;15.70;55.30;16.80;99489.00;;;;5070373;28;20670;-50